sensor_id;sensor_type;location;lat;lon;timestamp;P1;durP1;ratioP1;P2;durP2;ratioP2
21272;SDS011;36726;52.328;10.552;2023-03-13T00:01:27;11.43;;;3.28;;
21272;SDS011;36726;52.328;10.552;2023-03-13T00:03:55;9.88;;;3.15;;
21272;SDS011;36726;52.328;10.552;2023-03-13T00:06:23;8.93;;;2.95;;
21272;SDS011;36726;52.328;10.552;2023-03-13T00:08:51;11.75;;;3.42;;
21272;SDS011;36726;52.328;10.552;2023-03-13T00:11:19;11.68;;;3.67;;
21272;SDS011;36726;52.328;10.552;2023-03-13T00:13:46;10.25;;;3.67;;
21272;SDS011;36726;52.328;10.552;2023-03-13T00:16:13;9.70;;;3.10;;
21272;SDS011;36726;52.328;10.552;2023-03-13T00:18:45;15.52;;;3.50;;
21272;SDS011;36726;52.328;10.552;2023-03-13T00:21:13;9.95;;;3.60;;
21272;SDS011;36726;52.328;10.552;2023-03-13T00:23:40;10.48;;;3.20;;
21272;SDS011;36726;52.328;10.552;2023-03-13T00:26:08;12.23;;;3.55;;
21272;SDS011;36726;52.328;10.552;2023-03-13T00:28:37;10.43;;;3.38;;
21272;SDS011;36726;52.328;10.552;2023-03-13T00:31:23;8.73;;;2.85;;
21272;SDS011;36726;52.328;10.552;2023-03-13T00:33:53;11.52;;;3.45;;
21272;SDS011;36726;52.328;10.552;2023-03-13T00:36:25;10.68;;;2.97;;
21272;SDS011;36726;52.328;10.552;2023-03-13T00:38:54;14.95;;;3.55;;
21272;SDS011;36726;52.328;10.552;2023-03-13T00:41:22;13.38;;;3.25;;
21272;SDS011;36726;52.328;10.552;2023-03-13T00:43:51;12.80;;;3.13;;
21272;SDS011;36726;52.328;10.552;2023-03-13T00:46:19;16.95;;;3.80;;
21272;SDS011;36726;52.328;10.552;2023-03-13T00:48:48;13.55;;;3.08;;
21272;SDS011;36726;52.328;10.552;2023-03-13T00:51:15;10.80;;;3.33;;
21272;SDS011;36726;52.328;10.552;2023-03-13T00:53:44;7.22;;;2.80;;
21272;SDS011;36726;52.328;10.552;2023-03-13T00:56:12;7.97;;;3.40;;
21272;SDS011;36726;52.328;10.552;2023-03-13T00:58:41;10.05;;;3.50;;
21272;SDS011;36726;52.328;10.552;2023-03-13T01:01:13;14.50;;;3.80;;
21272;SDS011;36726;52.328;10.552;2023-03-13T01:03:42;9.23;;;3.33;;
21272;SDS011;36726;52.328;10.552;2023-03-13T01:06:13;9.38;;;2.80;;
21272;SDS011;36726;52.328;10.552;2023-03-13T01:08:41;10.40;;;3.08;;
21272;SDS011;36726;52.328;10.552;2023-03-13T01:11:10;14.23;;;3.47;;
21272;SDS011;36726;52.328;10.552;2023-03-13T01:13:39;15.20;;;3.65;;
21272;SDS011;36726;52.328;10.552;2023-03-13T01:16:08;11.40;;;3.05;;
21272;SDS011;36726;52.328;10.552;2023-03-13T01:18:37;9.95;;;3.05;;
21272;SDS011;36726;52.328;10.552;2023-03-13T01:21:05;13.13;;;3.25;;
21272;SDS011;36726;52.328;10.552;2023-03-13T01:23:32;9.10;;;2.60;;
21272;SDS011;36726;52.328;10.552;2023-03-13T01:25:59;7.53;;;2.80;;
21272;SDS011;36726;52.328;10.552;2023-03-13T01:28:26;7.00;;;2.75;;
21272;SDS011;36726;52.328;10.552;2023-03-13T01:30:53;11.05;;;3.17;;
21272;SDS011;36726;52.328;10.552;2023-03-13T01:33:19;16.13;;;3.35;;
21272;SDS011;36726;52.328;10.552;2023-03-13T01:35:46;7.15;;;2.80;;
21272;SDS011;36726;52.328;10.552;2023-03-13T01:38:13;7.18;;;2.60;;
21272;SDS011;36726;52.328;10.552;2023-03-13T01:40:47;6.10;;;2.42;;
21272;SDS011;36726;52.328;10.552;2023-03-13T01:43:24;8.75;;;3.13;;
21272;SDS011;36726;52.328;10.552;2023-03-13T01:52:13;10.65;;;3.10;;
21272;SDS011;36726;52.328;10.552;2023-03-13T01:55:02;8.50;;;2.47;;
21272;SDS011;36726;52.328;10.552;2023-03-13T01:57:36;12.13;;;3.08;;
21272;SDS011;36726;52.328;10.552;2023-03-13T02:00:08;8.98;;;2.67;;
21272;SDS011;36726;52.328;10.552;2023-03-13T02:02:40;7.88;;;2.70;;
21272;SDS011;36726;52.328;10.552;2023-03-13T02:05:10;9.25;;;2.95;;
21272;SDS011;36726;52.328;10.552;2023-03-13T02:07:40;12.60;;;3.20;;
21272;SDS011;36726;52.328;10.552;2023-03-13T02:10:11;13.23;;;2.95;;
21272;SDS011;36726;52.328;10.552;2023-03-13T02:12:40;9.77;;;2.83;;
21272;SDS011;36726;52.328;10.552;2023-03-13T02:15:09;9.60;;;2.72;;
21272;SDS011;36726;52.328;10.552;2023-03-13T02:17:39;7.65;;;2.80;;
21272;SDS011;36726;52.328;10.552;2023-03-13T02:20:06;9.20;;;2.70;;
21272;SDS011;36726;52.328;10.552;2023-03-13T02:25:43;7.38;;;2.75;;
21272;SDS011;36726;52.328;10.552;2023-03-13T02:28:31;11.38;;;2.88;;
21272;SDS011;36726;52.328;10.552;2023-03-13T02:31:04;15.05;;;3.47;;
21272;SDS011;36726;52.328;10.552;2023-03-13T02:33:35;10.05;;;2.80;;
21272;SDS011;36726;52.328;10.552;2023-03-13T02:36:06;10.45;;;3.33;;
21272;SDS011;36726;52.328;10.552;2023-03-13T02:38:36;7.88;;;2.53;;
21272;SDS011;36726;52.328;10.552;2023-03-13T02:41:07;9.93;;;2.95;;
21272;SDS011;36726;52.328;10.552;2023-03-13T02:43:35;12.25;;;3.13;;
21272;SDS011;36726;52.328;10.552;2023-03-13T02:46:05;12.48;;;2.75;;
21272;SDS011;36726;52.328;10.552;2023-03-13T02:48:54;9.35;;;3.00;;
21272;SDS011;36726;52.328;10.552;2023-03-13T02:51:35;13.27;;;3.05;;
21272;SDS011;36726;52.328;10.552;2023-03-13T02:54:09;10.30;;;3.08;;
21272;SDS011;36726;52.328;10.552;2023-03-13T02:56:41;7.25;;;2.80;;
21272;SDS011;36726;52.328;10.552;2023-03-13T02:59:10;6.85;;;2.65;;
21272;SDS011;36726;52.328;10.552;2023-03-13T03:01:40;9.45;;;2.88;;
21272;SDS011;36726;52.328;10.552;2023-03-13T03:04:07;7.15;;;2.55;;
21272;SDS011;36726;52.328;10.552;2023-03-13T03:06:34;13.13;;;3.33;;
21272;SDS011;36726;52.328;10.552;2023-03-13T03:09:02;11.88;;;2.80;;
21272;SDS011;36726;52.328;10.552;2023-03-13T03:11:32;9.18;;;3.08;;
21272;SDS011;36726;52.328;10.552;2023-03-13T03:14:03;12.18;;;2.83;;
21272;SDS011;36726;52.328;10.552;2023-03-13T03:16:35;10.30;;;3.05;;
21272;SDS011;36726;52.328;10.552;2023-03-13T03:19:04;7.25;;;2.85;;
21272;SDS011;36726;52.328;10.552;2023-03-13T03:21:32;12.15;;;2.78;;
21272;SDS011;36726;52.328;10.552;2023-03-13T03:23:58;10.05;;;3.00;;
21272;SDS011;36726;52.328;10.552;2023-03-13T03:26:25;9.32;;;2.70;;
21272;SDS011;36726;52.328;10.552;2023-03-13T03:28:52;9.82;;;3.22;;
21272;SDS011;36726;52.328;10.552;2023-03-13T03:31:19;10.60;;;3.10;;
21272;SDS011;36726;52.328;10.552;2023-03-13T03:33:45;12.77;;;4.18;;
21272;SDS011;36726;52.328;10.552;2023-03-13T03:36:16;13.68;;;3.63;;
21272;SDS011;36726;52.328;10.552;2023-03-13T03:38:45;16.00;;;4.53;;
21272;SDS011;36726;52.328;10.552;2023-03-13T03:41:14;19.23;;;5.25;;
21272;SDS011;36726;52.328;10.552;2023-03-13T03:43:42;12.52;;;4.47;;
21272;SDS011;36726;52.328;10.552;2023-03-13T03:46:10;13.02;;;4.20;;
21272;SDS011;36726;52.328;10.552;2023-03-13T03:48:37;11.80;;;3.67;;
21272;SDS011;36726;52.328;10.552;2023-03-13T03:51:06;10.77;;;3.03;;
21272;SDS011;36726;52.328;10.552;2023-03-13T03:53:36;8.80;;;2.50;;
21272;SDS011;36726;52.328;10.552;2023-03-13T03:56:03;12.45;;;2.95;;
21272;SDS011;36726;52.328;10.552;2023-03-13T03:58:30;10.40;;;2.72;;
21272;SDS011;36726;52.328;10.552;2023-03-13T04:01:04;10.43;;;2.67;;
21272;SDS011;36726;52.328;10.552;2023-03-13T04:03:31;12.82;;;3.03;;
21272;SDS011;36726;52.328;10.552;2023-03-13T04:05:58;14.85;;;2.78;;
21272;SDS011;36726;52.328;10.552;2023-03-13T04:08:24;11.95;;;2.85;;
21272;SDS011;36726;52.328;10.552;2023-03-13T04:10:51;14.30;;;2.80;;
21272;SDS011;36726;52.328;10.552;2023-03-13T04:13:21;11.23;;;2.60;;
21272;SDS011;36726;52.328;10.552;2023-03-13T04:15:48;8.32;;;2.53;;
21272;SDS011;36726;52.328;10.552;2023-03-13T04:18:15;14.55;;;3.08;;
21272;SDS011;36726;52.328;10.552;2023-03-13T04:20:42;7.13;;;2.78;;
21272;SDS011;36726;52.328;10.552;2023-03-13T04:23:09;12.93;;;2.70;;
21272;SDS011;36726;52.328;10.552;2023-03-13T04:25:36;12.30;;;3.35;;
21272;SDS011;36726;52.328;10.552;2023-03-13T04:28:07;13.10;;;3.00;;
21272;SDS011;36726;52.328;10.552;2023-03-13T04:30:39;9.00;;;2.78;;
21272;SDS011;36726;52.328;10.552;2023-03-13T04:33:18;12.27;;;2.60;;
21272;SDS011;36726;52.328;10.552;2023-03-13T04:35:59;8.75;;;2.40;;
21272;SDS011;36726;52.328;10.552;2023-03-13T04:38:44;9.75;;;2.75;;
21272;SDS011;36726;52.328;10.552;2023-03-13T04:41:49;13.43;;;2.85;;
21272;SDS011;36726;52.328;10.552;2023-03-13T04:44:30;6.97;;;2.70;;
21272;SDS011;36726;52.328;10.552;2023-03-13T04:47:06;12.70;;;2.90;;
21272;SDS011;36726;52.328;10.552;2023-03-13T04:49:44;8.00;;;2.65;;
21272;SDS011;36726;52.328;10.552;2023-03-13T04:52:29;5.25;;;2.53;;
21272;SDS011;36726;52.328;10.552;2023-03-13T04:55:10;11.05;;;3.25;;
21272;SDS011;36726;52.328;10.552;2023-03-13T04:57:43;11.68;;;3.20;;
21272;SDS011;36726;52.328;10.552;2023-03-13T05:00:22;12.45;;;2.33;;
21272;SDS011;36726;52.328;10.552;2023-03-13T05:03:08;13.07;;;3.05;;
21272;SDS011;36726;52.328;10.552;2023-03-13T05:05:49;8.15;;;2.78;;
21272;SDS011;36726;52.328;10.552;2023-03-13T05:08:50;9.93;;;2.85;;
21272;SDS011;36726;52.328;10.552;2023-03-13T05:11:52;12.23;;;2.45;;
21272;SDS011;36726;52.328;10.552;2023-03-13T05:14:44;8.48;;;2.60;;
21272;SDS011;36726;52.328;10.552;2023-03-13T05:17:23;15.70;;;3.25;;
21272;SDS011;36726;52.328;10.552;2023-03-13T05:20:09;9.98;;;2.85;;
21272;SDS011;36726;52.328;10.552;2023-03-13T05:22:59;11.13;;;2.60;;
21272;SDS011;36726;52.328;10.552;2023-03-13T05:25:47;10.68;;;2.95;;
21272;SDS011;36726;52.328;10.552;2023-03-13T05:28:30;10.75;;;2.72;;
21272;SDS011;36726;52.328;10.552;2023-03-13T05:31:15;9.70;;;3.10;;
21272;SDS011;36726;52.328;10.552;2023-03-13T05:33:56;7.25;;;2.85;;
21272;SDS011;36726;52.328;10.552;2023-03-13T05:36:39;9.88;;;2.75;;
21272;SDS011;36726;52.328;10.552;2023-03-13T05:39:25;9.02;;;2.20;;
21272;SDS011;36726;52.328;10.552;2023-03-13T05:42:17;6.88;;;2.20;;
21272;SDS011;36726;52.328;10.552;2023-03-13T05:44:58;10.18;;;2.70;;
21272;SDS011;36726;52.328;10.552;2023-03-13T05:47:53;10.48;;;2.60;;
21272;SDS011;36726;52.328;10.552;2023-03-13T05:50:32;15.23;;;3.10;;
21272;SDS011;36726;52.328;10.552;2023-03-13T05:53:25;10.88;;;2.83;;
21272;SDS011;36726;52.328;10.552;2023-03-13T05:56:14;13.57;;;3.60;;
21272;SDS011;36726;52.328;10.552;2023-03-13T05:59:00;8.10;;;3.50;;
21272;SDS011;36726;52.328;10.552;2023-03-13T06:01:26;12.55;;;3.42;;
21272;SDS011;36726;52.328;10.552;2023-03-13T06:04:08;13.90;;;3.55;;
21272;SDS011;36726;52.328;10.552;2023-03-13T06:06:37;15.65;;;3.75;;
21272;SDS011;36726;52.328;10.552;2023-03-13T06:09:03;15.20;;;3.90;;
21272;SDS011;36726;52.328;10.552;2023-03-13T06:11:32;9.40;;;3.25;;
21272;SDS011;36726;52.328;10.552;2023-03-13T06:13:59;9.63;;;3.88;;
21272;SDS011;36726;52.328;10.552;2023-03-13T06:16:34;12.88;;;3.45;;
21272;SDS011;36726;52.328;10.552;2023-03-13T06:19:13;8.48;;;3.15;;
21272;SDS011;36726;52.328;10.552;2023-03-13T06:21:40;12.27;;;3.60;;
21272;SDS011;36726;52.328;10.552;2023-03-13T06:24:07;11.43;;;2.80;;
21272;SDS011;36726;52.328;10.552;2023-03-13T06:26:34;6.05;;;2.60;;
21272;SDS011;36726;52.328;10.552;2023-03-13T06:29:00;9.18;;;3.00;;
21272;SDS011;36726;52.328;10.552;2023-03-13T06:31:27;7.15;;;2.58;;
21272;SDS011;36726;52.328;10.552;2023-03-13T06:33:54;9.30;;;2.53;;
21272;SDS011;36726;52.328;10.552;2023-03-13T06:36:21;8.82;;;2.60;;
21272;SDS011;36726;52.328;10.552;2023-03-13T06:38:49;5.05;;;2.00;;
21272;SDS011;36726;52.328;10.552;2023-03-13T06:41:16;5.88;;;2.13;;
21272;SDS011;36726;52.328;10.552;2023-03-13T06:43:43;6.85;;;1.92;;
21272;SDS011;36726;52.328;10.552;2023-03-13T06:46:17;5.65;;;1.95;;
21272;SDS011;36726;52.328;10.552;2023-03-13T06:48:48;4.50;;;2.17;;
21272;SDS011;36726;52.328;10.552;2023-03-13T06:51:16;5.25;;;1.58;;
21272;SDS011;36726;52.328;10.552;2023-03-13T06:53:44;5.05;;;1.55;;
21272;SDS011;36726;52.328;10.552;2023-03-13T06:56:11;5.78;;;1.70;;
21272;SDS011;36726;52.328;10.552;2023-03-13T06:58:38;6.38;;;1.77;;
21272;SDS011;36726;52.328;10.552;2023-03-13T07:01:06;7.25;;;1.83;;
21272;SDS011;36726;52.328;10.552;2023-03-13T07:03:33;4.57;;;1.45;;
21272;SDS011;36726;52.328;10.552;2023-03-13T07:06:00;3.95;;;1.70;;
21272;SDS011;36726;52.328;10.552;2023-03-13T07:08:27;8.73;;;1.85;;
21272;SDS011;36726;52.328;10.552;2023-03-13T07:10:57;6.38;;;1.65;;
21272;SDS011;36726;52.328;10.552;2023-03-13T07:13:25;5.18;;;1.80;;
21272;SDS011;36726;52.328;10.552;2023-03-13T07:15:52;4.93;;;1.75;;
21272;SDS011;36726;52.328;10.552;2023-03-13T07:18:19;3.85;;;1.50;;
21272;SDS011;36726;52.328;10.552;2023-03-13T07:20:56;5.55;;;1.60;;
21272;SDS011;36726;52.328;10.552;2023-03-13T07:23:24;7.50;;;1.63;;
21272;SDS011;36726;52.328;10.552;2023-03-13T07:25:59;3.25;;;1.38;;
21272;SDS011;36726;52.328;10.552;2023-03-13T07:28:28;5.95;;;2.05;;
21272;SDS011;36726;52.328;10.552;2023-03-13T07:31:22;3.83;;;1.42;;
21272;SDS011;36726;52.328;10.552;2023-03-13T07:33:54;2.58;;;1.60;;
21272;SDS011;36726;52.328;10.552;2023-03-13T07:36:22;7.32;;;1.50;;
21272;SDS011;36726;52.328;10.552;2023-03-13T07:38:49;2.70;;;1.45;;
21272;SDS011;36726;52.328;10.552;2023-03-13T07:41:16;7.05;;;1.50;;
21272;SDS011;36726;52.328;10.552;2023-03-13T07:43:44;2.97;;;1.10;;
21272;SDS011;36726;52.328;10.552;2023-03-13T07:46:12;5.68;;;1.17;;
21272;SDS011;36726;52.328;10.552;2023-03-13T07:48:43;6.63;;;1.38;;
21272;SDS011;36726;52.328;10.552;2023-03-13T07:51:12;3.00;;;1.30;;
21272;SDS011;36726;52.328;10.552;2023-03-13T07:53:40;3.13;;;1.48;;
21272;SDS011;36726;52.328;10.552;2023-03-13T07:56:09;4.10;;;1.00;;
21272;SDS011;36726;52.328;10.552;2023-03-13T07:58:38;3.15;;;0.95;;
21272;SDS011;36726;52.328;10.552;2023-03-13T08:01:09;2.42;;;1.15;;
21272;SDS011;36726;52.328;10.552;2023-03-13T08:03:56;2.72;;;1.20;;
21272;SDS011;36726;52.328;10.552;2023-03-13T08:06:26;3.05;;;1.10;;
21272;SDS011;36726;52.328;10.552;2023-03-13T08:08:59;2.28;;;1.17;;
21272;SDS011;36726;52.328;10.552;2023-03-13T08:11:26;2.72;;;1.35;;
21272;SDS011;36726;52.328;10.552;2023-03-13T08:13:54;2.80;;;1.10;;
21272;SDS011;36726;52.328;10.552;2023-03-13T08:16:22;1.63;;;1.02;;
21272;SDS011;36726;52.328;10.552;2023-03-13T08:18:52;4.05;;;1.33;;
21272;SDS011;36726;52.328;10.552;2023-03-13T08:21:26;2.45;;;1.10;;
21272;SDS011;36726;52.328;10.552;2023-03-13T08:23:54;2.65;;;1.30;;
21272;SDS011;36726;52.328;10.552;2023-03-13T08:26:24;2.67;;;1.10;;
21272;SDS011;36726;52.328;10.552;2023-03-13T08:28:53;1.92;;;1.25;;
21272;SDS011;36726;52.328;10.552;2023-03-13T08:31:23;1.88;;;1.08;;
21272;SDS011;36726;52.328;10.552;2023-03-13T08:33:53;3.35;;;1.15;;
21272;SDS011;36726;52.328;10.552;2023-03-13T08:36:21;3.40;;;1.15;;
21272;SDS011;36726;52.328;10.552;2023-03-13T08:38:50;1.45;;;0.80;;
21272;SDS011;36726;52.328;10.552;2023-03-13T08:41:19;2.00;;;1.05;;
21272;SDS011;36726;52.328;10.552;2023-03-13T08:43:47;2.03;;;1.20;;
21272;SDS011;36726;52.328;10.552;2023-03-13T08:46:14;3.00;;;1.13;;
21272;SDS011;36726;52.328;10.552;2023-03-13T08:48:43;2.72;;;0.93;;
21272;SDS011;36726;52.328;10.552;2023-03-13T08:51:11;1.92;;;0.98;;
21272;SDS011;36726;52.328;10.552;2023-03-13T08:53:39;4.20;;;1.55;;
21272;SDS011;36726;52.328;10.552;2023-03-13T08:56:08;4.20;;;1.45;;
21272;SDS011;36726;52.328;10.552;2023-03-13T08:58:35;2.40;;;1.13;;
21272;SDS011;36726;52.328;10.552;2023-03-13T09:01:03;2.60;;;1.20;;
21272;SDS011;36726;52.328;10.552;2023-03-13T09:03:31;2.97;;;1.15;;
21272;SDS011;36726;52.328;10.552;2023-03-13T09:05:58;1.55;;;1.10;;
21272;SDS011;36726;52.328;10.552;2023-03-13T09:08:26;1.88;;;1.10;;
21272;SDS011;36726;52.328;10.552;2023-03-13T09:10:57;1.95;;;1.15;;
21272;SDS011;36726;52.328;10.552;2023-03-13T09:13:25;1.67;;;0.93;;
21272;SDS011;36726;52.328;10.552;2023-03-13T09:15:52;1.13;;;0.95;;
21272;SDS011;36726;52.328;10.552;2023-03-13T09:18:30;2.03;;;1.10;;
21272;SDS011;36726;52.328;10.552;2023-03-13T09:20:57;1.85;;;1.02;;
21272;SDS011;36726;52.328;10.552;2023-03-13T09:23:24;1.88;;;1.05;;
21272;SDS011;36726;52.328;10.552;2023-03-13T09:25:52;2.45;;;0.93;;
21272;SDS011;36726;52.328;10.552;2023-03-13T09:28:19;1.80;;;1.02;;
21272;SDS011;36726;52.328;10.552;2023-03-13T09:30:46;4.85;;;1.00;;
21272;SDS011;36726;52.328;10.552;2023-03-13T09:33:18;3.78;;;1.00;;
21272;SDS011;36726;52.328;10.552;2023-03-13T09:35:46;2.40;;;0.80;;
21272;SDS011;36726;52.328;10.552;2023-03-13T09:38:16;2.17;;;1.00;;
21272;SDS011;36726;52.328;10.552;2023-03-13T09:40:45;1.35;;;0.88;;
21272;SDS011;36726;52.328;10.552;2023-03-13T09:43:42;3.42;;;0.77;;
21272;SDS011;36726;52.328;10.552;2023-03-13T09:46:17;2.78;;;0.73;;
21272;SDS011;36726;52.328;10.552;2023-03-13T09:48:49;1.30;;;0.80;;
21272;SDS011;36726;52.328;10.552;2023-03-13T09:51:25;1.58;;;0.90;;
21272;SDS011;36726;52.328;10.552;2023-03-13T09:56:38;2.05;;;0.90;;
21272;SDS011;36726;52.328;10.552;2023-03-13T09:59:18;1.27;;;0.60;;
21272;SDS011;36726;52.328;10.552;2023-03-13T10:01:53;1.00;;;0.60;;
21272;SDS011;36726;52.328;10.552;2023-03-13T10:04:27;1.30;;;0.60;;
21272;SDS011;36726;52.328;10.552;2023-03-13T10:07:01;2.80;;;0.70;;
21272;SDS011;36726;52.328;10.552;2023-03-13T10:09:29;0.85;;;0.52;;
21272;SDS011;36726;52.328;10.552;2023-03-13T10:19:59;1.08;;;0.52;;
21272;SDS011;36726;52.328;10.552;2023-03-13T10:22:34;1.25;;;0.70;;
21272;SDS011;36726;52.328;10.552;2023-03-13T10:27:43;1.23;;;0.60;;
21272;SDS011;36726;52.328;10.552;2023-03-13T10:30:19;2.97;;;0.73;;
21272;SDS011;36726;52.328;10.552;2023-03-13T10:32:52;0.80;;;0.40;;
21272;SDS011;36726;52.328;10.552;2023-03-13T10:35:23;1.35;;;0.60;;
21272;SDS011;36726;52.328;10.552;2023-03-13T10:37:51;0.55;;;0.50;;
21272;SDS011;36726;52.328;10.552;2023-03-13T10:40:27;1.15;;;0.68;;
21272;SDS011;36726;52.328;10.552;2023-03-13T10:43:01;2.53;;;0.60;;
21272;SDS011;36726;52.328;10.552;2023-03-13T10:45:31;0.75;;;0.40;;
21272;SDS011;36726;52.328;10.552;2023-03-13T10:48:10;1.00;;;0.52;;
21272;SDS011;36726;52.328;10.552;2023-03-13T10:50:44;4.65;;;0.90;;
21272;SDS011;36726;52.328;10.552;2023-03-13T10:55:54;0.98;;;0.52;;
21272;SDS011;36726;52.328;10.552;2023-03-13T10:58:39;1.48;;;0.55;;
21272;SDS011;36726;52.328;10.552;2023-03-13T11:01:19;1.50;;;0.60;;
21272;SDS011;36726;52.328;10.552;2023-03-13T11:03:52;1.77;;;0.80;;
21272;SDS011;36726;52.328;10.552;2023-03-13T11:06:27;0.90;;;0.60;;
21272;SDS011;36726;52.328;10.552;2023-03-13T11:11:46;1.20;;;0.70;;
21272;SDS011;36726;52.328;10.552;2023-03-13T11:14:19;4.20;;;0.63;;
21272;SDS011;36726;52.328;10.552;2023-03-13T11:16:48;1.55;;;0.82;;
21272;SDS011;36726;52.328;10.552;2023-03-13T11:19:19;2.40;;;1.00;;
21272;SDS011;36726;52.328;10.552;2023-03-13T11:33:09;1.73;;;0.63;;
21272;SDS011;36726;52.328;10.552;2023-03-13T11:35:48;0.88;;;0.52;;
21272;SDS011;36726;52.328;10.552;2023-03-13T11:38:28;1.92;;;1.02;;
21272;SDS011;36726;52.328;10.552;2023-03-13T11:52:02;0.90;;;0.52;;
21272;SDS011;36726;52.328;10.552;2023-03-13T11:54:53;2.97;;;0.60;;
21272;SDS011;36726;52.328;10.552;2023-03-13T12:06:11;0.70;;;0.50;;
21272;SDS011;36726;52.328;10.552;2023-03-13T12:08:55;0.70;;;0.40;;
21272;SDS011;36726;52.328;10.552;2023-03-13T12:11:31;1.23;;;0.60;;
21272;SDS011;36726;52.328;10.552;2023-03-13T12:14:10;0.70;;;0.55;;
21272;SDS011;36726;52.328;10.552;2023-03-13T12:16:48;0.85;;;0.52;;
21272;SDS011;36726;52.328;10.552;2023-03-13T12:19:32;0.73;;;0.43;;
21272;SDS011;36726;52.328;10.552;2023-03-13T12:22:30;2.10;;;0.50;;
21272;SDS011;36726;52.328;10.552;2023-03-13T12:25:09;1.98;;;0.50;;
21272;SDS011;36726;52.328;10.552;2023-03-13T12:27:41;1.75;;;0.63;;
21272;SDS011;36726;52.328;10.552;2023-03-13T12:33:28;1.35;;;0.70;;
21272;SDS011;36726;52.328;10.552;2023-03-13T12:36:03;3.67;;;0.60;;
21272;SDS011;36726;52.328;10.552;2023-03-13T12:38:54;1.25;;;0.63;;
21272;SDS011;36726;52.328;10.552;2023-03-13T12:44:35;3.40;;;0.57;;
21272;SDS011;36726;52.328;10.552;2023-03-13T12:52:39;1.27;;;0.80;;
21272;SDS011;36726;52.328;10.552;2023-03-13T12:55:30;0.65;;;0.60;;
21272;SDS011;36726;52.328;10.552;2023-03-13T12:58:08;0.73;;;0.50;;
21272;SDS011;36726;52.328;10.552;2023-03-13T13:00:37;0.80;;;0.52;;
21272;SDS011;36726;52.328;10.552;2023-03-13T13:09:16;0.52;;;0.50;;
21272;SDS011;36726;52.328;10.552;2023-03-13T13:14:00;1.02;;;0.60;;
21272;SDS011;36726;52.328;10.552;2023-03-13T13:16:27;0.88;;;0.50;;
21272;SDS011;36726;52.328;10.552;2023-03-13T13:18:55;4.25;;;0.77;;
21272;SDS011;36726;52.328;10.552;2023-03-13T13:30:15;1.10;;;0.80;;
21272;SDS011;36726;52.328;10.552;2023-03-13T13:32:56;1.25;;;0.60;;
21272;SDS011;36726;52.328;10.552;2023-03-13T13:35:45;1.25;;;0.70;;
21272;SDS011;36726;52.328;10.552;2023-03-13T13:38:33;1.65;;;0.60;;
21272;SDS011;36726;52.328;10.552;2023-03-13T13:43:35;1.30;;;0.50;;
21272;SDS011;36726;52.328;10.552;2023-03-13T13:46:25;0.68;;;0.38;;
21272;SDS011;36726;52.328;10.552;2023-03-13T13:51:31;0.57;;;0.30;;
21272;SDS011;36726;52.328;10.552;2023-03-13T13:54:02;0.65;;;0.40;;
21272;SDS011;36726;52.328;10.552;2023-03-13T13:56:51;0.40;;;0.40;;
21272;SDS011;36726;52.328;10.552;2023-03-13T13:59:44;1.45;;;0.50;;
21272;SDS011;36726;52.328;10.552;2023-03-13T14:02:16;1.35;;;0.40;;
21272;SDS011;36726;52.328;10.552;2023-03-13T14:05:01;1.30;;;0.43;;
21272;SDS011;36726;52.328;10.552;2023-03-13T14:10:34;2.20;;;0.55;;
21272;SDS011;36726;52.328;10.552;2023-03-13T14:13:10;0.88;;;0.45;;
21272;SDS011;36726;52.328;10.552;2023-03-13T14:15:40;1.02;;;0.50;;
21272;SDS011;36726;52.328;10.552;2023-03-13T14:23:50;3.20;;;0.50;;
21272;SDS011;36726;52.328;10.552;2023-03-13T14:26:21;1.05;;;0.38;;
21272;SDS011;36726;52.328;10.552;2023-03-13T14:28:54;0.60;;;0.43;;
21272;SDS011;36726;52.328;10.552;2023-03-13T14:31:26;0.77;;;0.32;;
21272;SDS011;36726;52.328;10.552;2023-03-13T14:33:55;0.30;;;0.30;;
21272;SDS011;36726;52.328;10.552;2023-03-13T14:36:24;1.00;;;0.60;;
21272;SDS011;36726;52.328;10.552;2023-03-13T14:38:58;0.60;;;0.30;;
21272;SDS011;36726;52.328;10.552;2023-03-13T14:41:30;0.25;;;0.22;;
21272;SDS011;36726;52.328;10.552;2023-03-13T14:44:09;1.20;;;0.22;;
21272;SDS011;36726;52.328;10.552;2023-03-13T14:46:42;0.82;;;0.57;;
21272;SDS011;36726;52.328;10.552;2023-03-13T14:49:14;0.70;;;0.35;;
21272;SDS011;36726;52.328;10.552;2023-03-13T14:51:48;0.50;;;0.40;;
21272;SDS011;36726;52.328;10.552;2023-03-13T14:57:01;1.00;;;0.40;;
21272;SDS011;36726;52.328;10.552;2023-03-13T14:59:30;0.98;;;0.30;;
21272;SDS011;36726;52.328;10.552;2023-03-13T15:02:02;0.95;;;0.20;;
21272;SDS011;36726;52.328;10.552;2023-03-13T15:05:28;0.50;;;0.30;;
21272;SDS011;36726;52.328;10.552;2023-03-13T15:07:53;0.50;;;0.35;;
21272;SDS011;36726;52.328;10.552;2023-03-13T15:10:21;0.32;;;0.20;;
21272;SDS011;36726;52.328;10.552;2023-03-13T15:12:48;1.13;;;0.35;;
21272;SDS011;36726;52.328;10.552;2023-03-13T15:15:15;1.08;;;0.25;;
21272;SDS011;36726;52.328;10.552;2023-03-13T15:17:42;0.80;;;0.30;;
21272;SDS011;36726;52.328;10.552;2023-03-13T15:20:09;0.65;;;0.40;;
21272;SDS011;36726;52.328;10.552;2023-03-13T15:22:39;0.55;;;0.40;;
21272;SDS011;36726;52.328;10.552;2023-03-13T15:25:17;0.30;;;0.30;;
21272;SDS011;36726;52.328;10.552;2023-03-13T15:27:46;1.45;;;0.30;;
21272;SDS011;36726;52.328;10.552;2023-03-13T15:30:16;0.32;;;0.28;;
21272;SDS011;36726;52.328;10.552;2023-03-13T15:32:44;0.40;;;0.20;;
21272;SDS011;36726;52.328;10.552;2023-03-13T15:35:28;0.35;;;0.20;;
21272;SDS011;36726;52.328;10.552;2023-03-13T15:37:57;0.75;;;0.40;;
21272;SDS011;36726;52.328;10.552;2023-03-13T15:40:27;0.63;;;0.30;;
21272;SDS011;36726;52.328;10.552;2023-03-13T15:42:56;0.32;;;0.30;;
21272;SDS011;36726;52.328;10.552;2023-03-13T15:45:22;0.40;;;0.15;;
21272;SDS011;36726;52.328;10.552;2023-03-13T15:47:49;0.40;;;0.30;;
21272;SDS011;36726;52.328;10.552;2023-03-13T15:50:17;0.25;;;0.20;;
21272;SDS011;36726;52.328;10.552;2023-03-13T15:52:44;0.55;;;0.32;;
21272;SDS011;36726;52.328;10.552;2023-03-13T15:55:11;0.40;;;0.30;;
21272;SDS011;36726;52.328;10.552;2023-03-13T15:57:45;0.20;;;0.20;;
21272;SDS011;36726;52.328;10.552;2023-03-13T16:00:18;0.25;;;0.20;;
21272;SDS011;36726;52.328;10.552;2023-03-13T16:02:46;2.92;;;0.30;;
21272;SDS011;36726;52.328;10.552;2023-03-13T16:05:14;0.60;;;0.20;;
21272;SDS011;36726;52.328;10.552;2023-03-13T16:07:41;0.32;;;0.30;;
21272;SDS011;36726;52.328;10.552;2023-03-13T16:10:21;0.68;;;0.40;;
21272;SDS011;36726;52.328;10.552;2023-03-13T16:12:51;0.30;;;0.30;;
21272;SDS011;36726;52.328;10.552;2023-03-13T16:15:18;0.30;;;0.30;;
21272;SDS011;36726;52.328;10.552;2023-03-13T16:17:45;1.58;;;0.38;;
21272;SDS011;36726;52.328;10.552;2023-03-13T16:20:13;0.88;;;0.50;;
21272;SDS011;36726;52.328;10.552;2023-03-13T16:22:42;0.45;;;0.30;;
21272;SDS011;36726;52.328;10.552;2023-03-13T16:25:09;0.50;;;0.35;;
21272;SDS011;36726;52.328;10.552;2023-03-13T16:27:36;1.13;;;0.30;;
21272;SDS011;36726;52.328;10.552;2023-03-13T16:30:05;0.30;;;0.30;;
21272;SDS011;36726;52.328;10.552;2023-03-13T16:32:38;0.50;;;0.35;;
21272;SDS011;36726;52.328;10.552;2023-03-13T16:35:05;1.00;;;0.40;;
21272;SDS011;36726;52.328;10.552;2023-03-13T16:37:31;0.50;;;0.50;;
21272;SDS011;36726;52.328;10.552;2023-03-13T16:39:58;1.45;;;0.60;;
21272;SDS011;36726;52.328;10.552;2023-03-13T16:42:24;0.70;;;0.40;;
21272;SDS011;36726;52.328;10.552;2023-03-13T16:44:51;1.67;;;0.50;;
21272;SDS011;36726;52.328;10.552;2023-03-13T16:47:19;0.55;;;0.40;;